Manhattan Regional Airport
KMHK : now visible

Airfield :











YOU CAN JOIN US ON...

 
LOGIN :

Register | Disclaimer

   EN    FR    IT 

 









Legend :    VFR   Marginal VFR   IFR   Intensive IFR   Very Intensive IFR
Visi :
Ceiling :
>= 8 km
>= 3000ft
5 to 8 km
1000 to 3000 ft
1500m to 5 km
500 to 1000 ft
800 to 1500m
200 to 500 ft
< 800m
< 200 ft
Symbols :   Thunderstorms  Fog  Heavy snow  Heavy precipitations  Wind > 20 kt







- Airport Elevation : 1057 ft
- IATA code : MHK


KMHK - Manhattan Regional

CURRENT METAR :
  • 220152Z 20009G18KT 10SM CLR 26/11 A2971 RMK AO2 SLP051 T02560106

EXPIRED METARs :
  • 220052Z 19012KT 10SM CLR 27/11 A2968 RMK AO2 PK WND 18032/0002 SLP042 T02720106
  • 212352Z 19017G29KT 10SM CLR 28/12 A2966 RMK AO2 PK WND 20034/2319 SLP036 T02830122 10306 20278 53001

TAF KMHK
Valid from the 22 at 00:00 until the 23 at 00:00 UTC


212325Z 2200/2224 18017G30KT P6SM FEW250
FM220200 18014KT P6SM SCT250 WS015/21045KT
FM220400 19012KT P6SM VCTS SCT035CB BKN100 WS015/20045KT
FM220700 19012KT P6SM BKN100 WS015/20045KT
FM220900 22010KT P6SM BKN100
FM221500 31010KT P6SM SCT030
KZKC FIR / North America



MET'MAP, your aeronautical weather chart ! - Copyright ORBIFLY December 2007 - Disclaimer

ORBIFLY MET'MAP TEAM :

Programming & Development : Alexandra Zaïnal
Concept & Development : Baudouin d'Aumeries
Co-Development & Prog : Marc-Olivier Méhu
Technical & hardware support : Manuel Goepfert

Contact : metmap@orbifly.com




SOURCES & CREDITS :

   NOAA       Earth
Advisory